Terminal Aerodrome Forecast
Issued by NWS Bismarck, ND

Home | Current Version | Previous Version | Text Only | Print | Product List | Glossary On
Versions: 1 2 3 4 5 6 7 8 9 10 11 12 13 14 15 16 17 18 19 20 21 22
357
FTUS43 KBIS 131830 AAE
TAFISN
TAF AMD
KISN 131830Z 1319/1418 16010KT P6SM VCSH OVC015
      TEMPO 1319/1322 5SM -FZRA
     FM140000 17005KT 6SM -SN OVC010
     FM140400 29009KT P6SM VCSH OVC015
     FM140900 29011KT P6SM OVC015=

USA.gov is the U.S. government's official web portal to all federal, state and local government web resources and services.